sensor_id;sensor_type;location;lat;lon;timestamp;P1;durP1;ratioP1;P2;durP2;ratioP2
59054;SDS011;44845;51.444;7.460;2023-04-23T00:00:35;40.25;;;29.45;;
59054;SDS011;44845;51.444;7.460;2023-04-23T00:03:03;40.95;;;29.75;;
59054;SDS011;44845;51.444;7.460;2023-04-23T00:05:34;43.35;;;29.85;;
59054;SDS011;44845;51.444;7.460;2023-04-23T00:08:01;42.65;;;31.02;;
59054;SDS011;44845;51.444;7.460;2023-04-23T00:10:27;44.92;;;30.90;;
59054;SDS011;44845;51.444;7.460;2023-04-23T00:12:52;43.65;;;29.98;;
59054;SDS011;44845;51.444;7.460;2023-04-23T00:15:18;44.70;;;31.20;;
59054;SDS011;44845;51.444;7.460;2023-04-23T00:17:46;45.05;;;31.30;;
59054;SDS011;44845;51.444;7.460;2023-04-23T00:20:11;44.30;;;30.60;;
59054;SDS011;44845;51.444;7.460;2023-04-23T00:22:37;40.70;;;29.48;;
59054;SDS011;44845;51.444;7.460;2023-04-23T00:25:03;42.38;;;30.23;;
59054;SDS011;44845;51.444;7.460;2023-04-23T00:27:28;44.22;;;30.58;;
59054;SDS011;44845;51.444;7.460;2023-04-23T00:29:54;45.60;;;31.85;;
59054;SDS011;44845;51.444;7.460;2023-04-23T00:32:19;45.95;;;30.45;;
59054;SDS011;44845;51.444;7.460;2023-04-23T00:34:46;47.25;;;32.00;;
59054;SDS011;44845;51.444;7.460;2023-04-23T00:37:13;46.42;;;31.00;;
59054;SDS011;44845;51.444;7.460;2023-04-23T00:39:38;43.47;;;30.70;;
59054;SDS011;44845;51.444;7.460;2023-04-23T00:42:04;42.67;;;29.98;;
59054;SDS011;44845;51.444;7.460;2023-04-23T00:44:36;46.17;;;31.45;;
59054;SDS011;44845;51.444;7.460;2023-04-23T00:47:01;43.45;;;29.55;;
59054;SDS011;44845;51.444;7.460;2023-04-23T00:49:27;40.67;;;28.52;;
59054;SDS011;44845;51.444;7.460;2023-04-23T00:51:52;41.47;;;29.08;;
59054;SDS011;44845;51.444;7.460;2023-04-23T00:54:18;37.35;;;26.83;;
59054;SDS011;44845;51.444;7.460;2023-04-23T00:56:43;35.85;;;25.67;;
59054;SDS011;44845;51.444;7.460;2023-04-23T00:59:08;34.00;;;24.42;;
59054;SDS011;44845;51.444;7.460;2023-04-23T01:01:34;30.48;;;23.42;;
59054;SDS011;44845;51.444;7.460;2023-04-23T01:03:59;28.98;;;22.25;;
59054;SDS011;44845;51.444;7.460;2023-04-23T01:06:25;30.13;;;22.65;;
59054;SDS011;44845;51.444;7.460;2023-04-23T01:08:52;27.55;;;21.17;;
59054;SDS011;44845;51.444;7.460;2023-04-23T01:11:18;27.98;;;21.75;;
59054;SDS011;44845;51.444;7.460;2023-04-23T01:13:43;28.30;;;21.77;;
59054;SDS011;44845;51.444;7.460;2023-04-23T01:16:09;25.83;;;20.98;;
59054;SDS011;44845;51.444;7.460;2023-04-23T01:18:35;27.00;;;20.60;;
59054;SDS011;44845;51.444;7.460;2023-04-23T01:21:00;27.90;;;21.40;;
59054;SDS011;44845;51.444;7.460;2023-04-23T01:23:27;25.60;;;20.50;;
59054;SDS011;44845;51.444;7.460;2023-04-23T01:25:53;28.10;;;20.42;;
59054;SDS011;44845;51.444;7.460;2023-04-23T01:28:19;26.95;;;21.08;;
59054;SDS011;44845;51.444;7.460;2023-04-23T01:30:45;28.85;;;21.27;;
59054;SDS011;44845;51.444;7.460;2023-04-23T01:33:10;27.88;;;20.85;;
59054;SDS011;44845;51.444;7.460;2023-04-23T01:35:36;25.33;;;19.83;;
59054;SDS011;44845;51.444;7.460;2023-04-23T01:38:01;28.23;;;20.00;;
59054;SDS011;44845;51.444;7.460;2023-04-23T01:40:27;27.98;;;20.33;;
59054;SDS011;44845;51.444;7.460;2023-04-23T01:42:55;26.48;;;20.08;;
59054;SDS011;44845;51.444;7.460;2023-04-23T01:45:20;25.92;;;18.58;;
59054;SDS011;44845;51.444;7.460;2023-04-23T01:47:46;25.08;;;19.50;;
59054;SDS011;44845;51.444;7.460;2023-04-23T01:50:12;27.45;;;20.20;;
59054;SDS011;44845;51.444;7.460;2023-04-23T01:52:37;29.95;;;20.98;;
59054;SDS011;44845;51.444;7.460;2023-04-23T01:55:03;26.33;;;19.75;;
59054;SDS011;44845;51.444;7.460;2023-04-23T01:57:28;25.20;;;19.67;;
59054;SDS011;44845;51.444;7.460;2023-04-23T02:00:02;25.05;;;19.52;;
59054;SDS011;44845;51.444;7.460;2023-04-23T02:02:35;27.88;;;19.65;;
59054;SDS011;44845;51.444;7.460;2023-04-23T02:05:01;26.38;;;19.65;;
59054;SDS011;44845;51.444;7.460;2023-04-23T02:07:30;27.38;;;20.35;;
59054;SDS011;44845;51.444;7.460;2023-04-23T02:09:56;26.20;;;19.88;;
59054;SDS011;44845;51.444;7.460;2023-04-23T02:12:22;25.75;;;19.60;;
59054;SDS011;44845;51.444;7.460;2023-04-23T02:14:47;25.35;;;19.92;;
59054;SDS011;44845;51.444;7.460;2023-04-23T02:17:12;28.55;;;19.52;;
59054;SDS011;44845;51.444;7.460;2023-04-23T02:19:38;24.67;;;19.25;;
59054;SDS011;44845;51.444;7.460;2023-04-23T02:22:03;27.17;;;19.75;;
59054;SDS011;44845;51.444;7.460;2023-04-23T02:24:28;29.10;;;19.10;;
59054;SDS011;44845;51.444;7.460;2023-04-23T02:26:54;23.55;;;18.83;;
59054;SDS011;44845;51.444;7.460;2023-04-23T02:29:19;24.17;;;19.15;;
59054;SDS011;44845;51.444;7.460;2023-04-23T02:31:45;24.05;;;19.45;;
59054;SDS011;44845;51.444;7.460;2023-04-23T02:34:10;26.75;;;19.33;;
59054;SDS011;44845;51.444;7.460;2023-04-23T02:36:35;26.58;;;18.70;;
59054;SDS011;44845;51.444;7.460;2023-04-23T02:39:02;25.35;;;19.15;;
59054;SDS011;44845;51.444;7.460;2023-04-23T02:41:27;27.63;;;19.55;;
59054;SDS011;44845;51.444;7.460;2023-04-23T02:43:53;26.20;;;19.10;;
59054;SDS011;44845;51.444;7.460;2023-04-23T02:46:18;23.60;;;18.98;;
59054;SDS011;44845;51.444;7.460;2023-04-23T02:48:43;26.80;;;19.13;;
59054;SDS011;44845;51.444;7.460;2023-04-23T02:51:09;25.20;;;18.83;;
59054;SDS011;44845;51.444;7.460;2023-04-23T02:53:36;23.42;;;17.73;;
59054;SDS011;44845;51.444;7.460;2023-04-23T02:56:01;24.20;;;18.48;;
59054;SDS011;44845;51.444;7.460;2023-04-23T02:58:28;23.20;;;18.50;;
59054;SDS011;44845;51.444;7.460;2023-04-23T03:00:54;26.40;;;19.70;;
59054;SDS011;44845;51.444;7.460;2023-04-23T03:03:20;26.73;;;19.38;;
59054;SDS011;44845;51.444;7.460;2023-04-23T03:05:46;27.23;;;19.27;;
59054;SDS011;44845;51.444;7.460;2023-04-23T03:08:11;25.40;;;18.67;;
59054;SDS011;44845;51.444;7.460;2023-04-23T03:10:37;29.33;;;19.42;;
59054;SDS011;44845;51.444;7.460;2023-04-23T03:13:02;26.33;;;20.50;;
59054;SDS011;44845;51.444;7.460;2023-04-23T03:15:27;24.83;;;19.02;;
59054;SDS011;44845;51.444;7.460;2023-04-23T03:17:53;24.48;;;19.23;;
59054;SDS011;44845;51.444;7.460;2023-04-23T03:20:18;24.67;;;19.25;;
59054;SDS011;44845;51.444;7.460;2023-04-23T03:22:44;26.50;;;19.30;;
59054;SDS011;44845;51.444;7.460;2023-04-23T03:25:10;24.50;;;18.65;;
59054;SDS011;44845;51.444;7.460;2023-04-23T03:27:37;23.88;;;19.00;;
59054;SDS011;44845;51.444;7.460;2023-04-23T03:30:03;26.85;;;18.63;;
59054;SDS011;44845;51.444;7.460;2023-04-23T03:32:29;25.80;;;18.38;;
59054;SDS011;44845;51.444;7.460;2023-04-23T03:34:54;24.58;;;18.92;;
59054;SDS011;44845;51.444;7.460;2023-04-23T03:37:20;26.75;;;17.90;;
59054;SDS011;44845;51.444;7.460;2023-04-23T03:39:45;24.50;;;18.67;;
59054;SDS011;44845;51.444;7.460;2023-04-23T03:42:10;23.58;;;17.77;;
59054;SDS011;44845;51.444;7.460;2023-04-23T03:44:36;25.52;;;18.08;;
59054;SDS011;44845;51.444;7.460;2023-04-23T03:47:01;22.45;;;18.58;;
59054;SDS011;44845;51.444;7.460;2023-04-23T03:49:27;23.90;;;18.30;;
59054;SDS011;44845;51.444;7.460;2023-04-23T03:51:53;24.23;;;18.52;;
59054;SDS011;44845;51.444;7.460;2023-04-23T03:54:18;25.55;;;18.25;;
59054;SDS011;44845;51.444;7.460;2023-04-23T03:56:43;24.55;;;17.50;;
59054;SDS011;44845;51.444;7.460;2023-04-23T03:59:09;24.05;;;17.95;;
59054;SDS011;44845;51.444;7.460;2023-04-23T04:01:35;22.88;;;17.58;;
59054;SDS011;44845;51.444;7.460;2023-04-23T04:04:01;22.98;;;16.70;;
59054;SDS011;44845;51.444;7.460;2023-04-23T04:06:26;23.65;;;17.40;;
59054;SDS011;44845;51.444;7.460;2023-04-23T04:08:52;22.75;;;17.42;;
59054;SDS011;44845;51.444;7.460;2023-04-23T04:11:17;21.33;;;16.92;;
59054;SDS011;44845;51.444;7.460;2023-04-23T04:13:42;21.45;;;17.08;;
59054;SDS011;44845;51.444;7.460;2023-04-23T04:16:08;21.88;;;17.55;;
59054;SDS011;44845;51.444;7.460;2023-04-23T04:18:33;23.58;;;18.50;;
59054;SDS011;44845;51.444;7.460;2023-04-23T04:20:58;22.02;;;17.35;;
59054;SDS011;44845;51.444;7.460;2023-04-23T04:23:24;27.40;;;18.67;;
59054;SDS011;44845;51.444;7.460;2023-04-23T04:25:50;22.67;;;17.77;;
59054;SDS011;44845;51.444;7.460;2023-04-23T04:28:20;21.77;;;17.63;;
59054;SDS011;44845;51.444;7.460;2023-04-23T04:30:46;23.05;;;17.92;;
59054;SDS011;44845;51.444;7.460;2023-04-23T04:33:13;22.85;;;17.48;;
59054;SDS011;44845;51.444;7.460;2023-04-23T04:35:39;24.00;;;18.17;;
59054;SDS011;44845;51.444;7.460;2023-04-23T04:38:04;21.45;;;17.38;;
59054;SDS011;44845;51.444;7.460;2023-04-23T04:40:29;22.92;;;17.08;;
59054;SDS011;44845;51.444;7.460;2023-04-23T04:42:55;21.05;;;16.38;;
59054;SDS011;44845;51.444;7.460;2023-04-23T04:45:21;22.25;;;16.77;;
59054;SDS011;44845;51.444;7.460;2023-04-23T04:47:47;21.00;;;16.10;;
59054;SDS011;44845;51.444;7.460;2023-04-23T04:50:13;22.25;;;17.15;;
59054;SDS011;44845;51.444;7.460;2023-04-23T04:52:38;19.90;;;15.35;;
59054;SDS011;44845;51.444;7.460;2023-04-23T04:55:03;22.17;;;16.08;;
59054;SDS011;44845;51.444;7.460;2023-04-23T04:57:31;22.63;;;16.38;;
59054;SDS011;44845;51.444;7.460;2023-04-23T04:59:56;20.88;;;15.38;;
59054;SDS011;44845;51.444;7.460;2023-04-23T05:02:21;19.00;;;14.80;;
59054;SDS011;44845;51.444;7.460;2023-04-23T05:04:47;21.20;;;15.77;;
59054;SDS011;44845;51.444;7.460;2023-04-23T05:07:12;18.67;;;15.73;;
59054;SDS011;44845;51.444;7.460;2023-04-23T05:09:38;19.63;;;15.55;;
59054;SDS011;44845;51.444;7.460;2023-04-23T05:12:03;23.20;;;16.20;;
59054;SDS011;44845;51.444;7.460;2023-04-23T05:14:31;19.63;;;15.60;;
59054;SDS011;44845;51.444;7.460;2023-04-23T05:16:57;21.60;;;16.00;;
59054;SDS011;44845;51.444;7.460;2023-04-23T05:19:22;20.80;;;15.77;;
59054;SDS011;44845;51.444;7.460;2023-04-23T05:21:47;20.02;;;16.02;;
59054;SDS011;44845;51.444;7.460;2023-04-23T05:24:13;17.65;;;14.60;;
59054;SDS011;44845;51.444;7.460;2023-04-23T05:26:38;18.52;;;14.75;;
59054;SDS011;44845;51.444;7.460;2023-04-23T05:29:03;17.95;;;14.38;;
59054;SDS011;44845;51.444;7.460;2023-04-23T05:31:29;20.10;;;15.25;;
59054;SDS011;44845;51.444;7.460;2023-04-23T05:33:54;19.60;;;14.30;;
59054;SDS011;44845;51.444;7.460;2023-04-23T05:36:19;19.35;;;14.38;;
59054;SDS011;44845;51.444;7.460;2023-04-23T05:38:45;16.77;;;13.82;;
59054;SDS011;44845;51.444;7.460;2023-04-23T05:41:11;17.38;;;13.73;;
59054;SDS011;44845;51.444;7.460;2023-04-23T05:43:37;20.52;;;13.95;;
59054;SDS011;44845;51.444;7.460;2023-04-23T05:46:02;18.38;;;13.90;;
59054;SDS011;44845;51.444;7.460;2023-04-23T05:48:31;18.02;;;13.45;;
59054;SDS011;44845;51.444;7.460;2023-04-23T05:50:57;19.05;;;13.70;;
59054;SDS011;44845;51.444;7.460;2023-04-23T05:53:22;15.93;;;13.60;;
59054;SDS011;44845;51.444;7.460;2023-04-23T05:55:47;17.25;;;13.82;;
59054;SDS011;44845;51.444;7.460;2023-04-23T05:58:13;16.70;;;13.02;;
59054;SDS011;44845;51.444;7.460;2023-04-23T06:00:39;16.98;;;12.95;;
59054;SDS011;44845;51.444;7.460;2023-04-23T06:03:05;16.63;;;13.50;;
59054;SDS011;44845;51.444;7.460;2023-04-23T06:05:31;18.60;;;13.05;;
59054;SDS011;44845;51.444;7.460;2023-04-23T06:07:56;17.40;;;12.98;;
59054;SDS011;44845;51.444;7.460;2023-04-23T06:10:21;16.85;;;12.90;;
59054;SDS011;44845;51.444;7.460;2023-04-23T06:12:47;16.20;;;12.50;;
59054;SDS011;44845;51.444;7.460;2023-04-23T06:15:14;19.38;;;13.10;;
59054;SDS011;44845;51.444;7.460;2023-04-23T06:17:39;16.42;;;12.43;;
59054;SDS011;44845;51.444;7.460;2023-04-23T06:20:05;16.45;;;12.57;;
59054;SDS011;44845;51.444;7.460;2023-04-23T06:22:31;16.92;;;12.65;;
59054;SDS011;44845;51.444;7.460;2023-04-23T06:24:56;14.80;;;12.02;;
59054;SDS011;44845;51.444;7.460;2023-04-23T06:27:22;17.23;;;10.95;;
59054;SDS011;44845;51.444;7.460;2023-04-23T06:29:47;17.90;;;11.90;;
59054;SDS011;44845;51.444;7.460;2023-04-23T06:32:12;16.25;;;11.45;;
59054;SDS011;44845;51.444;7.460;2023-04-23T06:34:38;12.40;;;10.88;;
59054;SDS011;44845;51.444;7.460;2023-04-23T06:37:03;13.05;;;11.07;;
59054;SDS011;44845;51.444;7.460;2023-04-23T06:39:28;13.98;;;10.45;;
59054;SDS011;44845;51.444;7.460;2023-04-23T06:41:54;15.52;;;11.32;;
59054;SDS011;44845;51.444;7.460;2023-04-23T06:44:20;16.52;;;11.10;;
59054;SDS011;44845;51.444;7.460;2023-04-23T06:46:45;11.80;;;10.10;;
59054;SDS011;44845;51.444;7.460;2023-04-23T06:49:11;12.70;;;10.88;;
59054;SDS011;44845;51.444;7.460;2023-04-23T06:51:36;11.88;;;10.35;;
59054;SDS011;44845;51.444;7.460;2023-04-23T06:54:01;11.65;;;9.73;;
59054;SDS011;44845;51.444;7.460;2023-04-23T06:56:27;17.17;;;10.25;;
59054;SDS011;44845;51.444;7.460;2023-04-23T06:58:53;11.88;;;9.60;;
59054;SDS011;44845;51.444;7.460;2023-04-23T07:01:18;12.73;;;8.98;;
59054;SDS011;44845;51.444;7.460;2023-04-23T07:03:44;11.00;;;8.80;;
59054;SDS011;44845;51.444;7.460;2023-04-23T07:06:13;11.27;;;8.10;;
59054;SDS011;44845;51.444;7.460;2023-04-23T07:08:39;12.38;;;8.77;;
59054;SDS011;44845;51.444;7.460;2023-04-23T07:11:05;11.73;;;9.45;;
59054;SDS011;44845;51.444;7.460;2023-04-23T07:13:31;9.50;;;8.05;;
59054;SDS011;44845;51.444;7.460;2023-04-23T07:15:56;11.57;;;7.97;;
59054;SDS011;44845;51.444;7.460;2023-04-23T07:18:21;12.05;;;8.15;;
59054;SDS011;44845;51.444;7.460;2023-04-23T07:20:47;9.82;;;7.88;;
59054;SDS011;44845;51.444;7.460;2023-04-23T07:23:12;14.20;;;8.30;;
59054;SDS011;44845;51.444;7.460;2023-04-23T07:25:38;9.95;;;7.82;;
59054;SDS011;44845;51.444;7.460;2023-04-23T07:28:03;12.52;;;7.40;;
59054;SDS011;44845;51.444;7.460;2023-04-23T07:30:29;9.02;;;7.35;;
59054;SDS011;44845;51.444;7.460;2023-04-23T07:32:54;10.43;;;6.97;;
59054;SDS011;44845;51.444;7.460;2023-04-23T07:35:20;9.20;;;7.15;;
59054;SDS011;44845;51.444;7.460;2023-04-23T07:37:45;9.25;;;6.57;;
59054;SDS011;44845;51.444;7.460;2023-04-23T07:40:11;10.25;;;7.07;;
59054;SDS011;44845;51.444;7.460;2023-04-23T07:42:36;6.85;;;5.82;;
59054;SDS011;44845;51.444;7.460;2023-04-23T07:45:02;8.68;;;6.07;;
59054;SDS011;44845;51.444;7.460;2023-04-23T07:47:28;11.70;;;5.97;;
59054;SDS011;44845;51.444;7.460;2023-04-23T07:49:53;9.10;;;6.15;;
59054;SDS011;44845;51.444;7.460;2023-04-23T07:52:19;10.25;;;6.43;;
59054;SDS011;44845;51.444;7.460;2023-04-23T07:54:44;8.50;;;5.57;;
59054;SDS011;44845;51.444;7.460;2023-04-23T07:57:10;11.18;;;5.93;;
59054;SDS011;44845;51.444;7.460;2023-04-23T07:59:36;6.13;;;4.97;;
59054;SDS011;44845;51.444;7.460;2023-04-23T08:02:03;6.38;;;5.43;;
59054;SDS011;44845;51.444;7.460;2023-04-23T08:04:28;9.90;;;5.80;;
59054;SDS011;44845;51.444;7.460;2023-04-23T08:06:54;6.47;;;5.28;;
59054;SDS011;44845;51.444;7.460;2023-04-23T08:09:19;7.28;;;5.68;;
59054;SDS011;44845;51.444;7.460;2023-04-23T08:11:44;6.20;;;4.78;;
59054;SDS011;44845;51.444;7.460;2023-04-23T08:14:10;7.15;;;5.50;;
59054;SDS011;44845;51.444;7.460;2023-04-23T08:16:35;6.75;;;4.65;;
59054;SDS011;44845;51.444;7.460;2023-04-23T08:19:01;6.78;;;4.40;;
59054;SDS011;44845;51.444;7.460;2023-04-23T08:21:28;6.95;;;4.82;;
59054;SDS011;44845;51.444;7.460;2023-04-23T08:23:55;7.25;;;4.05;;
59054;SDS011;44845;51.444;7.460;2023-04-23T08:26:20;9.93;;;4.32;;
59054;SDS011;44845;51.444;7.460;2023-04-23T08:28:46;4.75;;;3.78;;
59054;SDS011;44845;51.444;7.460;2023-04-23T08:31:11;5.43;;;3.88;;
59054;SDS011;44845;51.444;7.460;2023-04-23T08:33:37;5.95;;;3.95;;
59054;SDS011;44845;51.444;7.460;2023-04-23T08:36:02;6.03;;;3.83;;
59054;SDS011;44845;51.444;7.460;2023-04-23T08:38:28;8.27;;;3.58;;
59054;SDS011;44845;51.444;7.460;2023-04-23T08:40:55;4.97;;;3.75;;
59054;SDS011;44845;51.444;7.460;2023-04-23T08:43:23;8.38;;;4.10;;
59054;SDS011;44845;51.444;7.460;2023-04-23T08:45:56;8.95;;;3.67;;
59054;SDS011;44845;51.444;7.460;2023-04-23T08:48:28;7.35;;;3.75;;
59054;SDS011;44845;51.444;7.460;2023-04-23T08:50:53;5.03;;;3.28;;
59054;SDS011;44845;51.444;7.460;2023-04-23T08:53:20;4.53;;;3.55;;
59054;SDS011;44845;51.444;7.460;2023-04-23T08:55:51;7.03;;;3.10;;
59054;SDS011;44845;51.444;7.460;2023-04-23T08:58:18;3.72;;;2.97;;
59054;SDS011;44845;51.444;7.460;2023-04-23T09:00:44;4.95;;;3.25;;
59054;SDS011;44845;51.444;7.460;2023-04-23T09:03:10;5.28;;;2.90;;
59054;SDS011;44845;51.444;7.460;2023-04-23T09:05:36;4.07;;;2.30;;
59054;SDS011;44845;51.444;7.460;2023-04-23T09:08:02;4.78;;;2.42;;
59054;SDS011;44845;51.444;7.460;2023-04-23T09:10:27;8.93;;;2.67;;
59054;SDS011;44845;51.444;7.460;2023-04-23T09:12:52;8.05;;;3.08;;
59054;SDS011;44845;51.444;7.460;2023-04-23T09:15:18;6.53;;;2.97;;
59054;SDS011;44845;51.444;7.460;2023-04-23T09:17:44;5.57;;;2.97;;
59054;SDS011;44845;51.444;7.460;2023-04-23T09:20:11;5.60;;;3.03;;
59054;SDS011;44845;51.444;7.460;2023-04-23T09:22:44;6.55;;;3.10;;
59054;SDS011;44845;51.444;7.460;2023-04-23T09:25:11;9.00;;;3.20;;
59054;SDS011;44845;51.444;7.460;2023-04-23T09:27:37;4.95;;;2.92;;
59054;SDS011;44845;51.444;7.460;2023-04-23T09:30:04;5.25;;;2.95;;
59054;SDS011;44845;51.444;7.460;2023-04-23T09:32:35;5.03;;;2.72;;
59054;SDS011;44845;51.444;7.460;2023-04-23T09:35:02;7.57;;;2.45;;
59054;SDS011;44845;51.444;7.460;2023-04-23T09:37:28;4.05;;;2.65;;
59054;SDS011;44845;51.444;7.460;2023-04-23T09:39:57;3.40;;;2.50;;
59054;SDS011;44845;51.444;7.460;2023-04-23T09:42:23;5.63;;;2.40;;
59054;SDS011;44845;51.444;7.460;2023-04-23T09:44:55;4.57;;;2.00;;
59054;SDS011;44845;51.444;7.460;2023-04-23T09:47:21;4.68;;;2.20;;
59054;SDS011;44845;51.444;7.460;2023-04-23T09:49:47;4.43;;;2.75;;
59054;SDS011;44845;51.444;7.460;2023-04-23T09:52:13;3.25;;;1.95;;
59054;SDS011;44845;51.444;7.460;2023-04-23T09:54:39;4.28;;;1.63;;
59054;SDS011;44845;51.444;7.460;2023-04-23T09:57:04;4.00;;;1.38;;
59054;SDS011;44845;51.444;7.460;2023-04-23T09:59:32;4.38;;;1.60;;
59054;SDS011;44845;51.444;7.460;2023-04-23T10:02:00;7.32;;;2.00;;
59054;SDS011;44845;51.444;7.460;2023-04-23T10:04:28;2.45;;;1.55;;
59054;SDS011;44845;51.444;7.460;2023-04-23T10:06:54;3.58;;;1.58;;
59054;SDS011;44845;51.444;7.460;2023-04-23T10:09:20;3.25;;;1.90;;
59054;SDS011;44845;51.444;7.460;2023-04-23T10:11:50;2.65;;;1.58;;
59054;SDS011;44845;51.444;7.460;2023-04-23T10:14:16;7.03;;;1.70;;
59054;SDS011;44845;51.444;7.460;2023-04-23T10:16:42;4.40;;;1.65;;
59054;SDS011;44845;51.444;7.460;2023-04-23T10:19:10;4.07;;;1.40;;
59054;SDS011;44845;51.444;7.460;2023-04-23T10:21:39;4.82;;;1.60;;
59054;SDS011;44845;51.444;7.460;2023-04-23T10:24:06;5.07;;;1.60;;
59054;SDS011;44845;51.444;7.460;2023-04-23T10:26:37;3.95;;;1.40;;
59054;SDS011;44845;51.444;7.460;2023-04-23T10:29:06;8.32;;;1.70;;
59054;SDS011;44845;51.444;7.460;2023-04-23T10:31:37;3.00;;;1.20;;
59054;SDS011;44845;51.444;7.460;2023-04-23T10:34:03;7.00;;;1.50;;
59054;SDS011;44845;51.444;7.460;2023-04-23T10:36:31;6.47;;;1.60;;
59054;SDS011;44845;51.444;7.460;2023-04-23T10:38:57;2.65;;;1.33;;
59054;SDS011;44845;51.444;7.460;2023-04-23T10:41:28;2.22;;;1.35;;
59054;SDS011;44845;51.444;7.460;2023-04-23T10:44:01;3.60;;;1.20;;
59054;SDS011;44845;51.444;7.460;2023-04-23T10:46:28;3.50;;;1.27;;
59054;SDS011;44845;51.444;7.460;2023-04-23T10:49:04;2.40;;;1.42;;
59054;SDS011;44845;51.444;7.460;2023-04-23T10:51:34;4.75;;;1.40;;
59054;SDS011;44845;51.444;7.460;2023-04-23T10:54:03;2.20;;;1.02;;
59054;SDS011;44845;51.444;7.460;2023-04-23T10:56:29;2.65;;;1.45;;
59054;SDS011;44845;51.444;7.460;2023-04-23T10:58:55;4.85;;;1.30;;
59054;SDS011;44845;51.444;7.460;2023-04-23T11:01:22;1.88;;;1.30;;
59054;SDS011;44845;51.444;7.460;2023-04-23T11:03:50;2.97;;;1.20;;
59054;SDS011;44845;51.444;7.460;2023-04-23T11:06:18;4.55;;;1.15;;
59054;SDS011;44845;51.444;7.460;2023-04-23T11:11:53;4.10;;;1.08;;
59054;SDS011;44845;51.444;7.460;2023-04-23T11:14:19;3.05;;;1.20;;
59054;SDS011;44845;51.444;7.460;2023-04-23T11:16:44;4.25;;;1.50;;
59054;SDS011;44845;51.444;7.460;2023-04-23T11:19:12;3.80;;;0.90;;
59054;SDS011;44845;51.444;7.460;2023-04-23T11:21:55;4.07;;;0.80;;
59054;SDS011;44845;51.444;7.460;2023-04-23T11:24:34;5.10;;;1.20;;
59054;SDS011;44845;51.444;7.460;2023-04-23T11:27:03;4.03;;;1.20;;
59054;SDS011;44845;51.444;7.460;2023-04-23T11:29:30;3.50;;;1.02;;
59054;SDS011;44845;51.444;7.460;2023-04-23T11:31:55;3.25;;;1.10;;
59054;SDS011;44845;51.444;7.460;2023-04-23T11:34:21;3.35;;;1.00;;
59054;SDS011;44845;51.444;7.460;2023-04-23T11:36:50;4.38;;;1.15;;
59054;SDS011;44845;51.444;7.460;2023-04-23T11:39:17;1.50;;;1.13;;
59054;SDS011;44845;51.444;7.460;2023-04-23T11:41:46;2.25;;;1.20;;
59054;SDS011;44845;51.444;7.460;2023-04-23T11:44:12;3.65;;;1.00;;
59054;SDS011;44845;51.444;7.460;2023-04-23T11:46:37;3.47;;;1.10;;
59054;SDS011;44845;51.444;7.460;2023-04-23T11:49:03;5.28;;;1.40;;
59054;SDS011;44845;51.444;7.460;2023-04-23T11:51:28;1.95;;;1.08;;
59054;SDS011;44845;51.444;7.460;2023-04-23T11:53:53;2.03;;;1.10;;
59054;SDS011;44845;51.444;7.460;2023-04-23T11:56:28;4.05;;;1.13;;
59054;SDS011;44845;51.444;7.460;2023-04-23T11:59:00;3.78;;;1.00;;
59054;SDS011;44845;51.444;7.460;2023-04-23T12:01:38;3.47;;;1.02;;
59054;SDS011;44845;51.444;7.460;2023-04-23T12:04:10;1.30;;;0.82;;
59054;SDS011;44845;51.444;7.460;2023-04-23T12:06:37;2.22;;;0.65;;
59054;SDS011;44845;51.444;7.460;2023-04-23T12:09:04;1.95;;;0.68;;
59054;SDS011;44845;51.444;7.460;2023-04-23T12:11:29;2.55;;;0.80;;
59054;SDS011;44845;51.444;7.460;2023-04-23T12:13:56;2.97;;;1.00;;
59054;SDS011;44845;51.444;7.460;2023-04-23T12:16:32;2.15;;;0.75;;
59054;SDS011;44845;51.444;7.460;2023-04-23T12:19:06;3.85;;;0.73;;
59054;SDS011;44845;51.444;7.460;2023-04-23T12:21:33;4.40;;;1.05;;
59054;SDS011;44845;51.444;7.460;2023-04-23T12:23:59;2.92;;;0.70;;
59054;SDS011;44845;51.444;7.460;2023-04-23T12:26:27;3.95;;;0.70;;
59054;SDS011;44845;51.444;7.460;2023-04-23T12:28:53;3.72;;;0.75;;
59054;SDS011;44845;51.444;7.460;2023-04-23T12:31:22;3.28;;;0.70;;
59054;SDS011;44845;51.444;7.460;2023-04-23T12:33:55;1.23;;;0.60;;
59054;SDS011;44845;51.444;7.460;2023-04-23T12:36:24;1.02;;;0.40;;
59054;SDS011;44845;51.444;7.460;2023-04-23T12:38:52;3.08;;;1.02;;
59054;SDS011;44845;51.444;7.460;2023-04-23T12:41:17;1.33;;;0.52;;
59054;SDS011;44845;51.444;7.460;2023-04-23T12:43:43;2.50;;;0.65;;
59054;SDS011;44845;51.444;7.460;2023-04-23T12:46:12;2.33;;;0.70;;
59054;SDS011;44845;51.444;7.460;2023-04-23T12:48:38;2.53;;;0.68;;
59054;SDS011;44845;51.444;7.460;2023-04-23T12:51:03;4.55;;;0.70;;
59054;SDS011;44845;51.444;7.460;2023-04-23T12:53:30;1.33;;;0.60;;
59054;SDS011;44845;51.444;7.460;2023-04-23T12:55:56;1.80;;;0.60;;
59054;SDS011;44845;51.444;7.460;2023-04-23T12:58:21;1.10;;;0.60;;
59054;SDS011;44845;51.444;7.460;2023-04-23T13:00:46;1.42;;;0.60;;
59054;SDS011;44845;51.444;7.460;2023-04-23T13:03:12;3.10;;;1.17;;
59054;SDS011;44845;51.444;7.460;2023-04-23T13:05:39;3.10;;;0.68;;
59054;SDS011;44845;51.444;7.460;2023-04-23T13:08:05;1.20;;;0.80;;
59054;SDS011;44845;51.444;7.460;2023-04-23T13:10:30;1.20;;;0.60;;
59054;SDS011;44845;51.444;7.460;2023-04-23T13:12:56;2.10;;;0.60;;
59054;SDS011;44845;51.444;7.460;2023-04-23T13:15:21;5.78;;;0.82;;
59054;SDS011;44845;51.444;7.460;2023-04-23T13:17:47;1.98;;;0.80;;
59054;SDS011;44845;51.444;7.460;2023-04-23T13:20:12;2.55;;;0.77;;
59054;SDS011;44845;51.444;7.460;2023-04-23T13:22:37;1.02;;;0.70;;
59054;SDS011;44845;51.444;7.460;2023-04-23T13:25:03;3.15;;;0.57;;
59054;SDS011;44845;51.444;7.460;2023-04-23T13:27:28;3.50;;;0.80;;
59054;SDS011;44845;51.444;7.460;2023-04-23T13:29:55;2.95;;;0.60;;
59054;SDS011;44845;51.444;7.460;2023-04-23T13:32:20;3.13;;;0.80;;
59054;SDS011;44845;51.444;7.460;2023-04-23T13:34:47;1.67;;;0.50;;
59054;SDS011;44845;51.444;7.460;2023-04-23T13:37:13;3.15;;;0.60;;
59054;SDS011;44845;51.444;7.460;2023-04-23T13:39:39;2.88;;;0.60;;
59054;SDS011;44845;51.444;7.460;2023-04-23T13:42:04;3.85;;;0.82;;
59054;SDS011;44845;51.444;7.460;2023-04-23T13:44:30;5.28;;;0.80;;
59054;SDS011;44845;51.444;7.460;2023-04-23T13:46:55;2.85;;;0.52;;
59054;SDS011;44845;51.444;7.460;2023-04-23T13:49:23;3.05;;;0.65;;
59054;SDS011;44845;51.444;7.460;2023-04-23T13:51:49;2.08;;;0.70;;
59054;SDS011;44845;51.444;7.460;2023-04-23T13:54:18;1.52;;;0.50;;
59054;SDS011;44845;51.444;7.460;2023-04-23T13:56:43;2.85;;;0.63;;
59054;SDS011;44845;51.444;7.460;2023-04-23T13:59:09;1.67;;;0.50;;
59054;SDS011;44845;51.444;7.460;2023-04-23T14:01:34;3.70;;;0.70;;
59054;SDS011;44845;51.444;7.460;2023-04-23T14:03:59;1.17;;;0.47;;
59054;SDS011;44845;51.444;7.460;2023-04-23T14:06:25;3.70;;;0.45;;
59054;SDS011;44845;51.444;7.460;2023-04-23T14:08:51;2.72;;;0.50;;
59054;SDS011;44845;51.444;7.460;2023-04-23T14:11:16;1.05;;;0.40;;
59054;SDS011;44845;51.444;7.460;2023-04-23T14:13:42;2.60;;;0.60;;
59054;SDS011;44845;51.444;7.460;2023-04-23T14:16:08;4.07;;;0.50;;
59054;SDS011;44845;51.444;7.460;2023-04-23T14:18:33;1.05;;;0.38;;
59054;SDS011;44845;51.444;7.460;2023-04-23T14:20:58;3.88;;;0.35;;
59054;SDS011;44845;51.444;7.460;2023-04-23T14:25:51;0.80;;;0.40;;
59054;SDS011;44845;51.444;7.460;2023-04-23T14:28:34;1.55;;;0.40;;
59054;SDS011;44845;51.444;7.460;2023-04-23T14:31:03;3.30;;;0.60;;
59054;SDS011;44845;51.444;7.460;2023-04-23T14:33:29;1.02;;;0.60;;